Time;durP1;ratioP1;P1;durP2;ratioP2;P2;SDS_P1;SDS_P2;PMS_P1;PMS_P2;Temp;Humidity;BMP_temperature;BMP_pressure;BME280_temperature;BME280_humidity;BME280_pressure;Samples;Min_cycle;Max_cycle;Signal;HPM_P1;HPM_P2
2022/07/12 00:01:55;;;;;;;0.70;0.60;;;16.80;99.90;;;;;;4988209;28;20073;-70
2022/07/12 00:04:21;;;;;;;0.80;0.80;;;16.80;99.90;;;;;;4990201;28;20078;-71
2022/07/12 00:06:49;;;;;;;1.73;1.00;;;16.70;99.90;;;;;;4988013;28;20053;-70
2022/07/12 00:09:15;;;;;;;0.70;0.65;;;16.70;99.90;;;;;;4986547;28;20158;-69
2022/07/12 00:11:42;;;;;;;0.77;0.77;;;16.70;99.90;;;;;;4986629;28;20065;-69
2022/07/12 00:14:10;;;;;;;0.45;0.43;;;16.70;99.90;;;;;;4987069;28;20112;-67
2022/07/12 00:16:36;;;;;;;0.70;0.70;;;16.70;99.90;;;;;;4986662;28;20077;-67
2022/07/12 00:19:04;;;;;;;0.73;0.73;;;16.70;99.90;;;;;;4986732;28;20042;-74
2022/07/12 00:21:31;;;;;;;0.77;0.68;;;16.70;99.90;;;;;;4986665;28;20075;-68
2022/07/12 00:23:58;;;;;;;1.42;0.75;;;16.70;99.90;;;;;;4989139;28;20516;-71
2022/07/12 00:26:25;;;;;;;1.02;0.50;;;16.70;99.90;;;;;;4986801;28;20929;-69
2022/07/12 00:28:53;;;;;;;0.80;0.80;;;16.60;99.90;;;;;;4986906;28;20146;-69
2022/07/12 00:31:20;;;;;;;1.85;0.52;;;16.60;99.90;;;;;;4985377;28;20116;-70
2022/07/12 00:33:47;;;;;;;1.15;0.82;;;16.70;99.90;;;;;;4990119;28;20137;-69
2022/07/12 00:36:14;;;;;;;2.35;0.85;;;16.60;99.90;;;;;;4988543;28;20120;-68
2022/07/12 00:38:41;;;;;;;1.08;0.98;;;16.60;99.90;;;;;;4988300;28;20056;-71
2022/07/12 00:41:08;;;;;;;1.08;0.82;;;16.60;99.90;;;;;;4985920;28;20073;-71
2022/07/12 00:43:35;;;;;;;0.98;0.70;;;16.60;99.90;;;;;;4985215;28;20046;-66
2022/07/12 00:46:02;;;;;;;1.63;0.70;;;16.60;99.90;;;;;;4987557;28;21168;-67
2022/07/12 00:48:32;;;;;;;0.65;0.55;;;16.60;99.90;;;;;;4986273;28;20498;-71
2022/07/12 00:51:00;;;;;;;0.67;0.67;;;16.60;99.90;;;;;;4986128;28;20073;-69
2022/07/12 00:53:27;;;;;;;2.85;0.60;;;16.60;99.90;;;;;;4984841;28;20054;-69
2022/07/12 00:55:56;;;;;;;1.13;1.02;;;16.60;99.90;;;;;;4986898;28;20137;-72
2022/07/12 00:58:24;;;;;;;2.08;0.80;;;16.60;99.90;;;;;;4985857;28;21508;-67
2022/07/12 01:00:52;;;;;;;1.73;0.63;;;16.60;99.90;;;;;;4986619;28;20069;-64
2022/07/12 01:03:19;;;;;;;1.67;0.90;;;16.60;99.90;;;;;;4985394;28;20571;-66
2022/07/12 01:05:46;;;;;;;1.73;1.23;;;16.60;99.90;;;;;;4987572;28;20127;-68
2022/07/12 01:08:14;;;;;;;0.60;0.60;;;16.60;99.90;;;;;;4987936;28;20567;-71
2022/07/12 01:10:43;;;;;;;0.40;0.40;;;16.50;99.90;;;;;;4987267;28;20065;-66
2022/07/12 01:13:11;;;;;;;0.90;0.65;;;16.50;99.90;;;;;;4986092;28;20050;-73
2022/07/12 01:15:39;;;;;;;1.52;0.82;;;16.50;99.90;;;;;;4987939;28;20058;-70
2022/07/12 01:18:07;;;;;;;0.50;0.47;;;16.50;99.90;;;;;;4983053;28;20483;-68
2022/07/12 01:20:34;;;;;;;1.20;0.50;;;16.50;99.90;;;;;;4983308;28;20046;-68
2022/07/12 01:23:02;;;;;;;0.90;0.73;;;16.40;99.90;;;;;;4988453;28;20069;-67
2022/07/12 01:25:30;;;;;;;0.63;0.63;;;16.40;99.90;;;;;;4990377;28;20089;-69
2022/07/12 01:27:57;;;;;;;0.90;0.80;;;16.40;99.90;;;;;;4990814;28;20069;-68
2022/07/12 01:30:24;;;;;;;0.80;0.70;;;16.30;99.90;;;;;;4990802;28;20116;-73
2022/07/12 01:32:51;;;;;;;0.88;0.80;;;16.30;99.90;;;;;;4992187;28;20077;-72
2022/07/12 01:35:21;;;;;;;0.85;0.85;;;16.30;99.90;;;;;;4989321;28;20065;-69
2022/07/12 01:37:49;;;;;;;1.33;0.55;;;16.30;99.90;;;;;;4990783;28;20425;-65
2022/07/12 01:40:16;;;;;;;1.35;0.80;;;16.40;99.90;;;;;;4992099;28;20381;-68
2022/07/12 01:42:44;;;;;;;0.63;0.52;;;16.40;99.90;;;;;;4990329;28;20046;-75
2022/07/12 01:45:12;;;;;;;1.95;0.70;;;16.40;99.90;;;;;;4988177;28;20050;-67
2022/07/12 01:47:39;;;;;;;2.03;0.50;;;16.40;99.90;;;;;;4990760;28;20608;-68
2022/07/12 01:50:08;;;;;;;1.10;0.80;;;16.40;99.90;;;;;;4991407;28;20136;-74
2022/07/12 01:52:38;;;;;;;0.80;0.73;;;16.50;99.90;;;;;;4990939;28;20061;-67
2022/07/12 01:55:05;;;;;;;0.87;0.63;;;16.40;99.90;;;;;;4991875;28;20171;-67
2022/07/12 01:57:34;;;;;;;0.85;0.63;;;16.40;99.90;;;;;;4977126;28;20283;-69
2022/07/12 02:00:03;;;;;;;1.05;0.95;;;16.30;99.90;;;;;;4991564;28;20058;-67
2022/07/12 02:02:31;;;;;;;2.90;1.02;;;16.40;99.90;;;;;;4993015;28;20049;-66
2022/07/12 02:05:02;;;;;;;1.75;0.57;;;16.40;99.90;;;;;;4992069;28;20058;-67
2022/07/12 02:07:30;;;;;;;1.13;0.60;;;16.40;99.90;;;;;;4989524;28;20070;-68
2022/07/12 02:09:57;;;;;;;1.23;0.55;;;16.40;99.90;;;;;;4992361;28;20141;-67
2022/07/12 02:12:24;;;;;;;0.60;0.60;;;16.40;99.90;;;;;;4989705;28;20061;-71
2022/07/12 02:14:51;;;;;;;0.65;0.65;;;16.40;99.90;;;;;;4991888;28;20160;-66
2022/07/12 02:17:19;;;;;;;1.98;0.63;;;16.40;99.90;;;;;;4989839;28;20046;-70
2022/07/12 02:19:46;;;;;;;0.43;0.43;;;16.50;99.90;;;;;;4992103;28;20057;-67
2022/07/12 02:22:12;;;;;;;1.08;0.47;;;16.50;99.90;;;;;;4991651;28;20155;-69
2022/07/12 02:24:39;;;;;;;1.77;1.08;;;16.50;99.90;;;;;;4991073;28;20142;-67
2022/07/12 02:27:06;;;;;;;0.70;0.70;;;16.50;99.90;;;;;;4990110;28;20081;-66
2022/07/12 02:29:35;;;;;;;0.70;0.63;;;16.50;99.90;;;;;;4990559;28;20073;-69
2022/07/12 02:32:02;;;;;;;0.85;0.85;;;16.50;99.90;;;;;;4989451;28;20073;-68
2022/07/12 02:34:30;;;;;;;1.45;0.73;;;16.50;99.90;;;;;;4990055;28;20216;-67
2022/07/12 02:36:57;;;;;;;0.65;0.65;;;16.60;99.90;;;;;;4990636;28;20064;-68
2022/07/12 02:39:24;;;;;;;0.50;0.45;;;16.60;99.90;;;;;;4989522;28;20057;-73
2022/07/12 02:41:51;;;;;;;1.45;1.02;;;16.60;99.90;;;;;;4990759;28;20128;-72
2022/07/12 02:44:18;;;;;;;1.70;1.05;;;16.60;99.90;;;;;;4990582;28;20496;-66
2022/07/12 02:46:45;;;;;;;1.48;1.08;;;16.60;99.90;;;;;;4990302;28;20061;-71
2022/07/12 02:49:12;;;;;;;0.82;0.82;;;16.60;99.90;;;;;;4988272;28;20054;-67
2022/07/12 02:51:39;;;;;;;0.77;0.77;;;16.60;99.90;;;;;;4990667;28;20077;-68
2022/07/12 02:54:06;;;;;;;0.90;0.90;;;16.60;99.90;;;;;;4991038;28;20070;-71
2022/07/12 02:56:33;;;;;;;1.25;1.15;;;16.70;99.90;;;;;;4989251;28;20637;-68
2022/07/12 02:59:00;;;;;;;1.48;0.80;;;16.70;99.90;;;;;;4991651;28;20057;-64
2022/07/12 03:01:27;;;;;;;0.43;0.40;;;16.70;99.90;;;;;;4989094;28;24892;-71
2022/07/12 03:03:54;;;;;;;0.93;0.82;;;16.70;99.90;;;;;;4989643;28;20073;-68
2022/07/12 03:06:20;;;;;;;0.75;0.73;;;16.80;99.90;;;;;;4989810;28;20046;-67
2022/07/12 03:08:47;;;;;;;0.60;0.60;;;16.80;99.90;;;;;;4990393;28;20716;-69
2022/07/12 03:11:14;;;;;;;1.88;1.05;;;16.80;99.90;;;;;;4989095;28;20083;-64
2022/07/12 03:13:41;;;;;;;1.02;0.82;;;16.80;99.90;;;;;;4992288;28;20065;-67
2022/07/12 03:16:08;;;;;;;1.05;0.75;;;16.80;99.90;;;;;;4990464;28;20111;-66
2022/07/12 03:18:35;;;;;;;1.27;1.13;;;16.80;99.90;;;;;;4991100;28;20379;-67
2022/07/12 03:21:02;;;;;;;0.85;0.85;;;16.90;99.90;;;;;;4990706;28;20132;-70
2022/07/12 03:23:29;;;;;;;1.85;0.75;;;16.90;99.90;;;;;;4989086;28;20136;-67
2022/07/12 03:25:56;;;;;;;1.90;1.23;;;16.90;99.90;;;;;;4990834;28;20116;-66
2022/07/12 03:28:25;;;;;;;2.10;1.30;;;16.90;99.90;;;;;;4991083;28;20076;-69
2022/07/12 03:30:52;;;;;;;2.00;1.05;;;16.90;99.90;;;;;;4991774;28;20081;-65
2022/07/12 03:33:19;;;;;;;1.00;0.70;;;16.90;99.90;;;;;;4989457;28;20053;-64
2022/07/12 03:35:46;;;;;;;0.95;0.70;;;16.90;99.90;;;;;;4992287;28;20136;-68
2022/07/12 03:38:13;;;;;;;1.83;1.13;;;17.00;99.90;;;;;;4989775;28;21517;-66
2022/07/12 03:40:40;;;;;;;3.20;0.77;;;17.00;99.90;;;;;;4989958;28;20042;-67
2022/07/12 03:43:07;;;;;;;2.08;0.73;;;17.00;99.90;;;;;;4988584;28;20176;-68
2022/07/12 03:45:34;;;;;;;4.30;0.80;;;17.00;99.90;;;;;;4989679;28;20109;-67
2022/07/12 03:48:01;;;;;;;0.85;0.85;;;17.00;99.90;;;;;;4990062;28;20058;-64
2022/07/12 03:50:28;;;;;;;1.65;1.55;;;17.10;99.90;;;;;;4991300;28;20058;-67
2022/07/12 03:52:55;;;;;;;2.35;0.80;;;17.10;99.90;;;;;;4976797;28;20299;-65
2022/07/12 03:55:22;;;;;;;1.92;0.60;;;17.10;99.90;;;;;;4975879;28;20050;-67
2022/07/12 03:57:49;;;;;;;8.65;1.88;;;17.10;99.90;;;;;;4992253;28;20144;-68
2022/07/12 04:00:16;;;;;;;2.35;0.80;;;17.20;99.90;;;;;;4991267;28;20148;-71
2022/07/12 04:02:43;;;;;;;0.82;0.75;;;17.20;99.90;;;;;;4991741;28;20097;-65
2022/07/12 04:05:12;;;;;;;1.08;0.63;;;17.20;99.90;;;;;;4989787;28;20050;-67
2022/07/12 04:07:40;;;;;;;5.82;1.65;;;17.20;99.90;;;;;;4991887;28;20074;-69
2022/07/12 04:10:07;;;;;;;3.13;0.65;;;17.30;99.90;;;;;;4990412;28;20053;-70
2022/07/12 04:12:34;;;;;;;4.13;1.30;;;17.30;99.90;;;;;;4992362;28;20057;-69
2022/07/12 04:15:03;;;;;;;3.83;1.38;;;17.30;99.90;;;;;;4992265;28;20112;-66
2022/07/12 04:17:30;;;;;;;1.25;0.70;;;17.30;99.90;;;;;;4989430;28;20054;-66
2022/07/12 04:19:57;;;;;;;1.88;1.10;;;17.30;99.90;;;;;;4991758;28;20109;-68
2022/07/12 04:22:24;;;;;;;1.08;0.77;;;17.30;99.90;;;;;;4991095;28;20053;-67
2022/07/12 04:24:50;;;;;;;1.95;0.85;;;17.30;99.90;;;;;;4990626;28;20255;-66
2022/07/12 04:27:17;;;;;;;0.73;0.63;;;17.30;99.90;;;;;;4988554;28;20085;-71
2022/07/12 04:29:45;;;;;;;0.65;0.60;;;17.30;99.90;;;;;;4990900;28;20046;-71
2022/07/12 04:32:12;;;;;;;1.65;0.90;;;17.30;99.90;;;;;;4990603;28;20140;-68
2022/07/12 04:34:39;;;;;;;2.55;0.75;;;17.40;99.90;;;;;;4991584;28;20746;-70
2022/07/12 04:37:06;;;;;;;4.18;1.73;;;17.40;99.90;;;;;;4989311;28;20046;-69
2022/07/12 04:39:33;;;;;;;1.83;0.60;;;17.40;99.90;;;;;;4988358;28;20054;-70
2022/07/12 04:41:59;;;;;;;4.20;1.80;;;17.40;99.90;;;;;;4989411;28;20094;-67
2022/07/12 04:44:27;;;;;;;1.98;1.23;;;17.50;99.90;;;;;;4989878;28;20108;-70
2022/07/12 04:46:54;;;;;;;2.60;0.90;;;17.50;99.90;;;;;;4989909;28;20096;-70
2022/07/12 04:49:20;;;;;;;3.42;1.02;;;17.60;99.90;;;;;;4988055;28;20405;-71
2022/07/12 04:51:47;;;;;;;2.42;1.20;;;17.60;99.90;;;;;;4991134;28;20503;-68
2022/07/12 04:54:14;;;;;;;4.53;2.33;;;17.60;99.90;;;;;;4988990;28;20081;-65
2022/07/12 04:56:41;;;;;;;2.17;0.82;;;17.60;99.90;;;;;;4989226;28;20049;-64
2022/07/12 04:59:08;;;;;;;1.48;1.15;;;17.60;99.90;;;;;;4991445;28;20081;-73
2022/07/12 05:01:35;;;;;;;6.03;0.90;;;17.70;99.90;;;;;;4993578;28;20129;-66
2022/07/12 05:04:02;;;;;;;1.42;1.10;;;17.70;99.90;;;;;;4994745;28;20064;-66
2022/07/12 05:06:29;;;;;;;1.13;1.10;;;17.70;99.90;;;;;;4994470;28;20062;-67
2022/07/12 05:08:56;;;;;;;3.13;1.05;;;17.70;99.90;;;;;;4992123;28;20145;-69
2022/07/12 05:11:23;;;;;;;2.00;1.15;;;17.80;99.90;;;;;;4991730;28;20088;-71
2022/07/12 05:13:50;;;;;;;2.00;1.30;;;17.80;99.90;;;;;;4991353;28;20539;-70
2022/07/12 05:16:17;;;;;;;2.25;1.63;;;17.90;99.90;;;;;;4992772;28;20145;-67
2022/07/12 05:18:44;;;;;;;2.13;0.88;;;17.90;99.90;;;;;;4992786;28;20054;-67
2022/07/12 05:21:11;;;;;;;4.97;0.98;;;17.90;99.90;;;;;;4990386;28;20089;-73
2022/07/12 05:23:38;;;;;;;1.88;0.85;;;17.90;99.90;;;;;;4993208;28;20133;-70
2022/07/12 05:26:05;;;;;;;2.30;0.70;;;17.90;99.90;;;;;;4993137;28;20193;-67
2022/07/12 05:28:32;;;;;;;2.17;0.80;;;17.90;99.90;;;;;;4992181;28;20136;-67
2022/07/12 05:30:59;;;;;;;2.88;1.10;;;17.90;99.90;;;;;;4992995;28;20077;-71
2022/07/12 05:33:26;;;;;;;1.63;0.93;;;17.90;99.90;;;;;;4991301;28;20125;-66
2022/07/12 05:35:53;;;;;;;2.70;0.70;;;18.00;99.90;;;;;;4993252;28;20180;-70
2022/07/12 05:38:20;;;;;;;1.48;1.33;;;18.00;99.90;;;;;;4992576;28;20088;-68
2022/07/12 05:40:47;;;;;;;2.08;1.58;;;18.00;99.90;;;;;;4992933;28;20042;-68
2022/07/12 05:43:15;;;;;;;3.45;1.15;;;18.00;99.90;;;;;;4989274;28;20049;-70
2022/07/12 05:45:42;;;;;;;2.78;0.88;;;18.00;99.90;;;;;;4991466;28;20050;-67
2022/07/12 05:48:09;;;;;;;2.92;1.02;;;18.00;99.90;;;;;;4988607;28;20520;-68
2022/07/12 05:50:36;;;;;;;2.53;1.23;;;18.00;99.90;;;;;;4990439;28;20074;-67
2022/07/12 05:53:22;;;;;;;0.93;0.65;;;18.10;99.90;;;;;;4990458;28;20054;-65
2022/07/12 05:55:50;;;;;;;0.82;0.82;;;18.10;99.90;;;;;;4992112;28;20073;-72
2022/07/12 05:58:18;;;;;;;2.95;1.00;;;18.10;99.90;;;;;;4991716;28;20077;-69
2022/07/12 06:00:46;;;;;;;1.73;1.27;;;18.10;99.90;;;;;;4992736;28;20169;-70
2022/07/12 06:03:14;;;;;;;8.15;2.53;;;18.00;99.90;;;;;;4990671;28;20065;-67
2022/07/12 06:05:41;;;;;;;1.40;1.00;;;18.10;99.90;;;;;;4990945;28;20714;-68
2022/07/12 06:08:08;;;;;;;1.33;1.10;;;18.20;99.90;;;;;;4992225;28;20069;-68
2022/07/12 06:10:35;;;;;;;1.98;1.50;;;18.20;99.90;;;;;;4991910;28;20057;-68
2022/07/12 06:13:02;;;;;;;1.17;1.08;;;18.20;99.90;;;;;;4991577;28;20696;-68
2022/07/12 06:15:30;;;;;;;3.38;1.30;;;18.20;99.90;;;;;;4990202;28;20068;-70
2022/07/12 06:18:00;;;;;;;;;;;18.20;99.90;;;;;;4993304;28;20042;-66
2022/07/12 06:20:27;;;;;;;1.77;0.98;;;18.30;99.90;;;;;;4992964;28;19929;-68
2022/07/12 06:22:55;;;;;;;2.60;1.20;;;18.20;99.90;;;;;;4992202;28;20142;-67
2022/07/12 06:25:22;;;;;;;2.25;1.13;;;18.30;99.90;;;;;;4990883;28;20046;-67
2022/07/12 06:28:09;;;;;;;2.08;1.00;;;18.30;99.90;;;;;;4992593;28;20045;-70
2022/07/12 06:30:36;;;;;;;3.83;1.23;;;18.40;99.90;;;;;;4991390;28;20504;-67
2022/07/12 06:33:03;;;;;;;1.38;0.85;;;18.20;99.90;;;;;;4992886;28;20053;-67
2022/07/12 06:35:30;;;;;;;1.00;1.00;;;18.30;99.90;;;;;;4989489;28;20108;-68
2022/07/12 06:37:57;;;;;;;3.03;1.00;;;18.30;99.90;;;;;;4990662;28;20136;-71
2022/07/12 06:40:24;;;;;;;0.60;0.50;;;18.30;99.90;;;;;;4992707;28;20081;-67
2022/07/12 06:42:51;;;;;;;0.80;0.80;;;18.30;99.90;;;;;;4991844;28;20745;-68
2022/07/12 06:45:18;;;;;;;2.60;1.55;;;18.40;99.90;;;;;;4988689;28;20484;-68
2022/07/12 06:47:45;;;;;;;1.02;0.93;;;18.40;99.90;;;;;;4990944;28;20042;-68
2022/07/12 06:50:13;;;;;;;0.60;0.60;;;18.40;99.90;;;;;;4993561;28;20420;-69
2022/07/12 06:52:40;;;;;;;1.30;1.20;;;18.40;99.90;;;;;;4989978;28;20062;-69
2022/07/12 06:55:08;;;;;;;2.70;1.15;;;18.50;99.90;;;;;;4989901;28;20053;-69
2022/07/12 06:57:37;;;;;;;2.03;1.00;;;18.40;99.90;;;;;;4991071;28;20507;-68
2022/07/12 07:00:05;;;;;;;1.33;0.55;;;18.40;99.90;;;;;;4990298;28;20176;-72
2022/07/12 07:02:32;;;;;;;1.20;0.60;;;18.50;99.90;;;;;;4990186;28;20046;-66
2022/07/12 07:04:59;;;;;;;0.60;0.60;;;18.50;99.90;;;;;;4991330;28;21518;-69
2022/07/12 07:07:26;;;;;;;2.38;1.60;;;18.50;99.90;;;;;;4990225;28;20062;-68
2022/07/12 07:09:53;;;;;;;2.63;1.33;;;18.50;99.90;;;;;;4989134;28;20038;-68
2022/07/12 07:12:20;;;;;;;0.52;0.52;;;18.50;99.90;;;;;;4990498;28;20771;-65
2022/07/12 07:14:48;;;;;;;0.60;0.50;;;18.50;99.90;;;;;;4991367;28;20165;-66
2022/07/12 07:17:17;;;;;;;11.02;1.80;;;18.50;99.90;;;;;;4988829;28;20131;-64
2022/07/12 07:19:44;;;;;;;2.00;1.20;;;18.50;99.90;;;;;;4992554;28;20132;-67
2022/07/12 07:22:12;;;;;;;3.33;1.38;;;18.50;99.90;;;;;;4991266;28;20044;-69
2022/07/12 07:24:40;;;;;;;3.17;1.10;;;18.60;99.90;;;;;;4991602;28;21462;-67
2022/07/12 07:27:08;;;;;;;1.10;1.00;;;18.60;99.90;;;;;;4989407;28;20139;-65
2022/07/12 07:32:20;;;;;;;0.65;0.63;;;18.60;99.90;;;;;;4993222;28;20049;-68
2022/07/12 07:34:47;;;;;;;4.53;1.25;;;18.60;99.90;;;;;;4991786;28;20054;-68
2022/07/12 07:37:14;;;;;;;1.90;0.40;;;18.50;99.90;;;;;;4990611;28;20418;-69
2022/07/12 07:39:41;;;;;;;1.00;0.50;;;18.60;99.90;;;;;;4991138;28;20153;-65
2022/07/12 07:42:08;;;;;;;1.38;1.08;;;18.60;99.90;;;;;;4989553;28;20139;-65
2022/07/12 07:44:35;;;;;;;1.02;0.43;;;18.60;99.90;;;;;;4987878;28;20065;-69
2022/07/12 07:47:22;;;;;;;1.65;0.45;;;18.60;99.90;;;;;;4989054;28;20061;-67
2022/07/12 07:49:49;;;;;;;0.60;0.50;;;18.60;99.90;;;;;;4991016;28;20069;-70
2022/07/12 07:52:16;;;;;;;1.13;0.43;;;18.60;99.90;;;;;;4992013;28;20700;-67
2022/07/12 07:54:43;;;;;;;0.63;0.55;;;18.70;99.90;;;;;;4992594;28;20199;-66
2022/07/12 07:57:10;;;;;;;1.23;0.40;;;18.60;99.90;;;;;;4988703;28;20152;-67
2022/07/12 07:59:36;;;;;;;1.60;0.65;;;18.70;99.90;;;;;;4991611;28;20128;-72
2022/07/12 08:02:04;;;;;;;2.50;0.70;;;18.70;99.90;;;;;;4990412;28;20050;-65
2022/07/12 08:04:31;;;;;;;1.10;0.20;;;18.80;99.90;;;;;;4991660;28;20069;-64
2022/07/12 08:06:58;;;;;;;3.15;0.60;;;18.80;99.90;;;;;;4990995;28;20061;-68
2022/07/12 08:09:25;;;;;;;2.20;0.55;;;18.90;99.90;;;;;;4986171;28;20112;-65
2022/07/12 08:11:52;;;;;;;0.98;0.73;;;18.90;99.90;;;;;;4989692;28;20058;-72
2022/07/12 08:14:19;;;;;;;0.40;0.40;;;19.00;99.90;;;;;;4990719;28;20799;-67
2022/07/12 08:16:46;;;;;;;1.70;0.40;;;19.00;99.90;;;;;;4989995;28;20054;-70
2022/07/12 08:19:13;;;;;;;1.20;0.70;;;19.00;99.90;;;;;;4988643;28;20354;-67
2022/07/12 08:21:40;;;;;;;0.65;0.40;;;19.00;99.90;;;;;;4987923;28;20124;-74
2022/07/12 08:24:07;;;;;;;1.17;0.50;;;19.00;99.90;;;;;;5006491;28;20052;-66
2022/07/12 08:26:34;;;;;;;1.38;0.60;;;19.00;99.90;;;;;;4989529;28;20132;-71
2022/07/12 08:29:00;;;;;;;0.40;0.40;;;19.00;99.90;;;;;;4988584;28;20092;-72
2022/07/12 08:31:28;;;;;;;3.72;1.95;;;19.00;99.90;;;;;;4987817;28;20061;-69
2022/07/12 08:33:54;;;;;;;2.97;0.65;;;19.10;99.90;;;;;;4992596;28;20073;-66
2022/07/12 08:36:21;;;;;;;5.65;1.20;;;19.10;99.90;;;;;;4994053;28;20050;-67
2022/07/12 08:38:48;;;;;;;3.45;1.58;;;19.20;99.90;;;;;;4993713;28;20126;-66
2022/07/12 08:41:15;;;;;;;0.90;0.60;;;19.20;99.90;;;;;;4992668;28;20157;-71
2022/07/12 08:43:43;;;;;;;0.52;0.50;;;19.20;99.90;;;;;;4994202;28;20503;-69
2022/07/12 08:46:12;;;;;;;1.23;0.88;;;19.20;99.90;;;;;;4994375;28;20518;-66
2022/07/12 08:48:41;;;;;;;1.65;0.68;;;19.20;99.90;;;;;;4994960;28;20153;-68
2022/07/12 08:51:11;;;;;;;3.72;0.75;;;19.30;99.90;;;;;;4994081;28;20050;-67
2022/07/12 08:53:38;;;;;;;1.27;0.40;;;19.30;99.90;;;;;;4995715;28;20057;-76
2022/07/12 08:56:07;;;;;;;0.68;0.57;;;19.30;99.90;;;;;;4994833;28;20691;-71
2022/07/12 08:58:33;;;;;;;3.35;0.57;;;19.30;99.90;;;;;;4994816;28;21552;-66
2022/07/12 09:01:00;;;;;;;0.50;0.50;;;19.30;99.90;;;;;;4994576;28;20503;-69
2022/07/12 09:03:28;;;;;;;0.73;0.40;;;19.30;99.90;;;;;;4993326;28;20097;-69
2022/07/12 09:05:56;;;;;;;1.33;0.40;;;19.40;99.90;;;;;;4994560;28;20815;-68
2022/07/12 09:08:34;;;;;;;1.75;0.70;;;19.40;99.90;;;;;;4993447;28;20062;-72
2022/07/12 09:11:03;;;;;;;0.40;0.40;;;19.50;99.90;;;;;;4994082;28;20041;-66
2022/07/12 09:13:47;;;;;;;1.88;0.52;;;19.50;99.90;;;;;;4992915;28;20217;-65
2022/07/12 09:16:20;;;;;;;0.47;0.47;;;19.60;99.90;;;;;;4994602;28;20056;-68
2022/07/12 09:18:48;;;;;;;2.75;0.90;;;19.70;99.90;;;;;;4994853;28;20055;-69
2022/07/12 09:21:26;;;;;;;1.17;0.43;;;19.90;99.90;;;;;;4992039;28;20153;-65
2022/07/12 09:23:57;;;;;;;0.35;0.35;;;19.90;99.90;;;;;;4992436;28;20066;-76
2022/07/12 09:26:31;;;;;;;0.73;0.63;;;20.00;99.90;;;;;;4993636;28;20058;-76
2022/07/12 09:29:25;;;;;;;1.00;0.55;;;20.00;99.90;;;;;;4994186;28;20103;-67
2022/07/12 09:37:25;;;;;;;3.08;0.68;;;20.00;99.90;;;;;;4990059;28;20241;-64
2022/07/12 09:39:53;;;;;;;0.65;0.57;;;19.90;99.90;;;;;;4975928;28;20473;-68
2022/07/12 09:42:21;;;;;;;0.52;0.43;;;20.10;99.90;;;;;;4977471;28;20057;-66
2022/07/12 09:44:56;;;;;;;0.85;0.63;;;20.10;99.90;;;;;;4985998;28;20141;-69
2022/07/12 09:47:25;;;;;;;1.15;0.65;;;20.10;99.90;;;;;;4988814;28;20481;-69
2022/07/12 09:49:52;;;;;;;0.40;0.38;;;20.10;99.90;;;;;;4991763;28;21003;-70
2022/07/12 09:52:21;;;;;;;2.83;0.68;;;20.10;99.90;;;;;;4992942;28;20156;-64
2022/07/12 09:54:53;;;;;;;0.60;0.60;;;20.10;99.90;;;;;;4993072;28;20128;-67
2022/07/12 09:57:29;;;;;;;1.08;0.77;;;20.10;99.90;;;;;;4991887;28;20456;-66
2022/07/12 09:59:58;;;;;;;1.90;0.73;;;20.10;99.90;;;;;;4995023;28;20042;-72
2022/07/12 10:02:25;;;;;;;0.80;0.60;;;20.10;99.90;;;;;;4992862;28;20148;-63
2022/07/12 10:04:53;;;;;;;4.97;2.97;;;20.00;99.90;;;;;;4992957;28;20167;-68
2022/07/12 10:07:21;;;;;;;1.17;0.65;;;20.00;99.90;;;;;;4991025;28;20046;-67
2022/07/12 10:09:52;;;;;;;2.67;0.70;;;20.10;99.90;;;;;;4993168;28;20195;-67
2022/07/12 10:12:21;;;;;;;0.73;0.45;;;20.10;99.90;;;;;;4993749;28;20074;-64
2022/07/12 10:14:57;;;;;;;0.88;0.88;;;20.10;99.90;;;;;;4993555;28;20058;-69
2022/07/12 10:17:24;;;;;;;1.23;1.17;;;20.20;99.90;;;;;;4991014;28;20583;-65
2022/07/12 10:20:18;;;;;;;1.33;0.90;;;20.30;99.90;;;;;;4995034;28;20149;-74
2022/07/12 10:22:45;;;;;;;1.42;0.93;;;20.40;99.90;;;;;;4993866;28;20142;-65
2022/07/12 10:25:30;;;;;;;5.65;1.20;;;20.60;99.90;;;;;;4992150;28;20112;-71
2022/07/12 10:27:58;;;;;;;2.17;0.70;;;20.60;99.90;;;;;;4993435;28;20050;-66
2022/07/12 10:30:25;;;;;;;1.63;0.68;;;20.50;99.90;;;;;;4993045;28;20165;-69
2022/07/12 10:32:59;;;;;;;2.10;1.95;;;20.60;99.90;;;;;;4992388;28;20104;-72
2022/07/12 10:35:28;;;;;;;1.10;0.80;;;20.60;99.90;;;;;;4991207;28;20895;-75
2022/07/12 10:38:11;;;;;;;0.85;0.82;;;20.60;99.90;;;;;;4993457;28;20151;-68
2022/07/12 10:40:39;;;;;;;0.80;0.80;;;20.60;99.90;;;;;;4994229;28;20701;-66
2022/07/12 10:43:07;;;;;;;1.10;0.90;;;20.60;99.90;;;;;;4994750;28;20101;-65
2022/07/12 10:45:39;;;;;;;1.45;0.93;;;20.60;99.90;;;;;;4991871;28;20049;-64
2022/07/12 10:48:13;;;;;;;2.08;1.10;;;20.70;99.90;;;;;;4992443;28;20393;-69
2022/07/12 10:51:03;;;;;;;0.98;0.90;;;20.70;99.90;;;;;;4994106;28;20126;-66
2022/07/12 10:53:34;;;;;;;1.20;0.82;;;20.80;99.90;;;;;;4991678;28;20157;-64
2022/07/12 10:56:04;;;;;;;2.25;1.40;;;20.90;99.90;;;;;;4991953;28;20974;-64
2022/07/12 10:58:34;;;;;;;4.45;2.08;;;20.80;99.90;;;;;;4993973;28;20037;-66
2022/07/12 11:01:10;;;;;;;1.85;1.10;;;20.70;99.90;;;;;;4993450;28;20060;-71
2022/07/12 11:03:49;;;;;;;0.80;0.80;;;20.70;99.90;;;;;;4991135;28;20688;-72
2022/07/12 11:06:21;;;;;;;1.25;1.10;;;20.80;99.90;;;;;;4992859;28;20175;-67
2022/07/12 11:08:58;;;;;;;6.22;1.77;;;21.00;99.90;;;;;;4991697;28;20068;-69
2022/07/12 11:11:43;;;;;;;1.23;1.20;;;20.90;99.90;;;;;;4992104;28;20468;-71
2022/07/12 11:14:19;;;;;;;1.90;1.17;;;20.80;99.90;;;;;;4993696;28;20054;-68
2022/07/12 11:16:47;;;;;;;1.15;1.10;;;20.80;99.90;;;;;;4992761;28;20049;-68
2022/07/12 11:19:15;;;;;;;5.57;1.67;;;21.00;99.90;;;;;;4991457;28;20054;-70
2022/07/12 11:21:45;;;;;;;1.80;1.40;;;20.80;99.90;;;;;;4991526;28;20061;-66
2022/07/12 11:24:16;;;;;;;;;;;20.80;99.90;;;;;;4993421;28;20045;-68
2022/07/12 11:26:43;;;;;;;1.27;1.13;;;20.90;99.90;;;;;;4991317;28;19933;-70
2022/07/12 11:29:11;;;;;;;2.28;0.98;;;20.90;99.90;;;;;;4990607;28;20135;-65
2022/07/12 11:31:38;;;;;;;1.02;0.93;;;21.10;99.90;;;;;;4991262;28;20120;-70
2022/07/12 11:34:06;;;;;;;1.50;1.30;;;21.00;99.90;;;;;;4993457;28;20084;-63
2022/07/12 11:36:35;;;;;;;2.33;1.38;;;21.10;99.90;;;;;;4993739;28;20056;-67
2022/07/12 11:39:02;;;;;;;3.15;1.40;;;21.20;99.90;;;;;;4994456;28;20573;-70
2022/07/12 11:41:29;;;;;;;4.35;1.83;;;21.30;99.90;;;;;;4990556;28;20594;-68
2022/07/12 11:43:57;;;;;;;1.63;1.38;;;21.30;99.90;;;;;;4992418;28;20050;-64
2022/07/12 11:46:24;;;;;;;1.17;1.10;;;21.30;99.90;;;;;;4991949;28;20054;-64
2022/07/12 11:48:51;;;;;;;3.38;1.58;;;21.30;99.90;;;;;;4992476;28;20058;-67
2022/07/12 11:51:18;;;;;;;2.63;2.40;;;21.30;99.90;;;;;;4974531;28;20050;-67
2022/07/12 11:53:53;;;;;;;2.65;1.20;;;21.10;99.90;;;;;;4981254;28;20127;-66
2022/07/12 11:56:31;;;;;;;1.00;0.70;;;21.20;99.90;;;;;;4988248;28;20045;-71
2022/07/12 11:58:58;;;;;;;2.47;1.10;;;21.30;99.90;;;;;;4992982;28;20062;-68
2022/07/12 12:01:25;;;;;;;2.20;0.93;;;21.40;99.90;;;;;;4992860;28;20078;-70
2022/07/12 12:03:52;;;;;;;1.45;1.10;;;21.50;99.90;;;;;;4993757;28;20061;-70
2022/07/12 12:06:19;;;;;;;1.15;1.00;;;21.60;99.90;;;;;;4993192;28;20825;-72
2022/07/12 12:08:50;;;;;;;1.67;1.27;;;21.50;99.90;;;;;;4992746;28;21054;-65
2022/07/12 12:11:28;;;;;;;0.80;0.80;;;21.60;99.90;;;;;;4994070;28;20376;-70
2022/07/12 12:13:56;;;;;;;2.20;0.90;;;21.80;99.90;;;;;;4993919;28;20096;-68
2022/07/12 12:16:24;;;;;;;1.95;1.10;;;21.70;99.90;;;;;;4993149;28;20058;-67
2022/07/12 12:18:51;;;;;;;2.28;1.23;;;21.70;99.90;;;;;;4991893;28;20176;-65
2022/07/12 12:21:25;;;;;;;4.38;1.10;;;21.60;99.90;;;;;;4977996;28;20574;-68
2022/07/12 12:24:08;;;;;;;1.25;1.02;;;21.70;99.90;;;;;;4991177;28;21260;-69
2022/07/12 12:26:36;;;;;;;3.95;0.98;;;21.70;99.90;;;;;;4990265;28;20042;-69
2022/07/12 12:29:03;;;;;;;3.47;1.00;;;21.80;99.90;;;;;;4990904;28;20058;-70
2022/07/12 12:31:30;;;;;;;1.77;0.82;;;21.90;99.90;;;;;;4989052;28;20497;-64
2022/07/12 12:33:58;;;;;;;1.27;1.17;;;22.00;99.90;;;;;;4991409;28;20066;-70
2022/07/12 12:36:26;;;;;;;2.78;1.15;;;22.00;99.90;;;;;;4991688;28;20065;-65
2022/07/12 12:38:56;;;;;;;1.50;1.10;;;22.20;99.90;;;;;;4991286;28;20049;-66
2022/07/12 12:41:25;;;;;;;1.63;1.27;;;22.30;99.90;;;;;;4988630;28;20783;-72
2022/07/12 12:44:04;;;;;;;4.82;0.93;;;22.20;99.90;;;;;;4990753;28;20115;-70
2022/07/12 12:47:30;;;;;;;1.02;0.80;;;22.10;99.90;;;;;;4990473;28;20054;-64
2022/07/12 12:49:50;;;;;;;2.33;1.25;;;22.20;99.90;;;;;;4991300;28;20121;-67
2022/07/12 12:52:25;;;;;;;1.90;1.13;;;21.90;99.90;;;;;;4991354;28;20109;-75
2022/07/12 12:54:53;;;;;;;1.00;0.90;;;21.60;99.90;;;;;;4993260;28;20129;-70
2022/07/12 12:57:20;;;;;;;1.23;0.85;;;21.30;99.90;;;;;;4990312;28;20046;-70
2022/07/12 12:59:47;;;;;;;1.20;1.00;;;21.10;99.90;;;;;;4992207;28;20058;-67
2022/07/12 13:02:15;;;;;;;2.10;0.90;;;21.10;99.90;;;;;;4990002;28;20073;-68
2022/07/12 13:04:42;;;;;;;1.58;1.08;;;21.20;99.90;;;;;;4991461;28;20053;-64